Terminal Aerodrome Forecast
Issued by NWS Louisville, KY

Home | Current Version | Previous Version | Text Only | Print | Product List | Glossary On
Versions: 1 2 3 4 5 6 7 8 9 10 11 12 13 14 15 16 17 18
807
FTUS43 KLMK 142146 AAA
TAFBWG
TAF AMD
KBWG 142146Z 1422/1518 10009KT 6SM -FZRA BR OVC040
     FM142300 11010KT 5SM -PL BKN060
     FM150000 18010KT 4SM -SN BKN007
     FM150800 18007KT 4SM -SHRA BR BKN007
     FM151200 17006KT 6SM BR BKN007 OVC015=

USA.gov is the U.S. government's official web portal to all federal, state and local government web resources and services.